TKV weather

Tomahawk Regional Airport
Tomahawk, Wisconsin, United States

Public forecast

Using degrees Fahrenheit for public forecast. Weather courtesy of forecast.io.

METAR (pilot weather report)

Retrieved 2019/08/24 20:35 UTC (0 seconds ago):

KTKV 242035Z AUTO 10005KT 7SM OVC043 22/11 A3027 RMK AO2 T02150107

TAF (pilot weather forecast)

Closest forecast is Rhinelander Oneida County Airport, 17.2 nm (31.9 km) NE. Retrieved 2019/08/24 18:30 UTC (2 hours ago):

TAF KRHI 241729Z 2418/2518 16008G15KT P6SM BKN040 FM242100 16005KT P6SM SCT045 FM250100 14003KT P6SM SCT250 FM251500 16009KT P6SM SCT030 SCT200